aviador You're here:

K1S5 Decoded Metar

in
Report Time2017-11-23 03:15:00
UTC Time2017-11-23 03:23:13
Flight Rules mvfr MVFR
WindCalm
Visibility4828 m
Phenomena:Mist
Clouds:Broken 090 Hf
Broken 110 Hf
Expected CloudBase > 400 ft AGL from Temp-Dew spread
Ceiling9,000 ft
Temp07°C
Dew Point06°C (93% RH)
AAT6.1°C
QNH1017 hPa
Raw Report
METAR K1S5 230315Z AUTO 00000KT 3SM BR BKN090 BKN110 07/06 A3004 RMK
AO2 T00650061=

Extra information for K1S5:More info

Social comments